Time;durP1;ratioP1;P1;durP2;ratioP2;P2;SDS_P1;SDS_P2;PMS_P1;PMS_P2;Temp;Humidity;BMP_temperature;BMP_pressure;BME280_temperature;BME280_humidity;BME280_pressure;Samples;Min_cycle;Max_cycle;Signal;HPM_P1;HPM_P2
2022/09/08 00:00:44;;;;;;;;;;;22.00;66.30;;;;;;5053761;28;863;-62
2022/09/08 00:03:10;;;;;;;;;;;22.00;66.30;;;;;;5052935;28;899;-64
2022/09/08 00:05:47;;;;;;;;;;;21.90;66.30;;;;;;5053723;28;894;-65
2022/09/08 00:08:13;;;;;;;;;;;22.00;66.40;;;;;;5051819;28;1941;-64
2022/09/08 00:10:38;;;;;;;;;;;22.00;66.40;;;;;;5056311;28;1228;-64
2022/09/08 00:13:06;;;;;;;;;;;22.00;66.30;;;;;;5064128;28;1204;-62
2022/09/08 00:15:31;;;;;;;;;;;22.00;66.30;;;;;;5065151;28;1236;-61
2022/09/08 00:17:56;;;;;;;;;;;22.00;66.40;;;;;;5063060;28;1272;-64
2022/09/08 00:20:22;;;;;;;;;;;22.00;66.40;;;;;;5060605;28;1211;-65
2022/09/08 00:22:47;;;;;;;;;;;22.00;66.40;;;;;;5062362;28;1214;-65
2022/09/08 00:25:13;;;;;;;;;;;22.00;66.40;;;;;;5062938;28;1286;-65
2022/09/08 00:27:38;;;;;;;;;;;21.90;66.30;;;;;;5060741;28;1422;-64
2022/09/08 00:30:04;;;;;;;;;;;21.90;66.30;;;;;;5061777;28;1905;-65
2022/09/08 00:32:30;;;;;;;;;;;22.00;66.40;;;;;;5062640;28;1281;-61
2022/09/08 00:35:00;;;;;;;;;;;22.00;66.40;;;;;;5062759;28;1187;-64
2022/09/08 00:37:26;;;;;;;;;;;22.00;66.40;;;;;;5062095;28;1492;-65
2022/09/08 00:39:52;;;;;;;;;;;22.00;66.50;;;;;;5064297;28;1186;-65
2022/09/08 00:42:17;;;;;;;;;;;22.00;66.50;;;;;;5062415;28;1293;-65
2022/09/08 00:44:49;;;;;;;;;;;22.00;66.50;;;;;;5054249;28;2129;-63
2022/09/08 00:47:17;;;;;;;;;;;22.00;66.40;;;;;;5067960;28;1195;-65
2022/09/08 00:49:43;;;;;;;;;;;21.90;66.40;;;;;;5053162;28;1906;-65
2022/09/08 00:52:08;;;;;;;;;;;21.90;66.40;;;;;;5051546;28;1013;-65
2022/09/08 00:54:34;;;;;;;;;;;22.00;66.50;;;;;;5052970;28;1072;-66
2022/09/08 00:56:59;;;;;;;;;;;22.00;66.50;;;;;;5063495;28;1310;-65
2022/09/08 00:59:25;;;;;;;;;;;21.90;66.50;;;;;;5068030;28;1193;-65
2022/09/08 01:01:51;;;;;;;;;;;22.00;66.50;;;;;;5064384;28;1201;-66
2022/09/08 01:04:16;;;;;;;;;;;22.00;66.50;;;;;;5064614;28;1066;-65
2022/09/08 01:15:07;;;;;;;;;;;22.00;66.50;;;;;;5079540;28;625;-63
2022/09/08 01:17:33;;;;;;;;;;;22.00;66.50;;;;;;5078391;28;1197;-65
2022/09/08 01:19:59;;;;;;;;;;;21.90;66.50;;;;;;5079663;28;834;-65
2022/09/08 01:22:43;;;;;;;;;;;22.00;66.60;;;;;;5075268;28;1096;-64
2022/09/08 01:25:28;;;;;;;;;;;22.00;66.60;;;;;;5067535;28;1122;-64
2022/09/08 01:28:08;;;;;;;;;;;22.00;66.60;;;;;;5059370;28;1209;-64
2022/09/08 01:30:34;;;;;;;;;;;22.00;66.60;;;;;;5059256;28;1001;-63
2022/09/08 01:33:00;;;;;;;;;;;22.00;66.60;;;;;;5075552;28;1136;-63
2022/09/08 01:35:27;;;;;;;;;;;22.00;66.70;;;;;;5078157;28;879;-64
2022/09/08 01:37:52;;;;;;;;;;;22.00;66.70;;;;;;5086063;22;2050;-66
2022/09/08 01:40:18;;;;;;;;;;;22.00;66.70;;;;;;5057592;28;1064;-66
2022/09/08 01:42:43;;;;;;;;;;;22.00;66.70;;;;;;5059059;28;925;-67
2022/09/08 01:45:09;;;;;;;;;;;21.90;66.60;;;;;;5059293;28;878;-67
2022/09/08 01:47:34;;;;;;;;;;;22.00;66.70;;;;;;5058923;28;1282;-67
2022/09/08 01:50:00;;;;;;;;;;;21.90;66.60;;;;;;5059149;28;1927;-67
2022/09/08 01:52:25;;;;;;;;;;;22.00;66.70;;;;;;5058664;28;925;-67
2022/09/08 01:54:50;;;;;;;;;;;22.00;66.70;;;;;;5059158;28;929;-67
2022/09/08 01:57:16;;;;;;;;;;;22.00;66.70;;;;;;5058764;28;1220;-67
2022/09/08 01:59:41;;;;;;;;;;;22.00;66.80;;;;;;5059137;28;878;-67
2022/09/08 02:02:07;;;;;;;;;;;22.00;66.80;;;;;;5058804;28;1154;-67
2022/09/08 02:04:32;;;;;;;;;;;22.00;66.70;;;;;;5059247;28;1291;-67
2022/09/08 02:06:58;;;;;;;;;;;21.90;66.70;;;;;;5058716;28;1208;-67
2022/09/08 02:09:23;;;;;;;;;;;22.00;66.70;;;;;;5058896;28;1949;-67
2022/09/08 02:11:49;;;;;;;;;;;22.00;66.70;;;;;;5074192;28;870;-67
2022/09/08 02:14:14;;;;;;;;;;;21.90;66.70;;;;;;5058997;28;839;-67
2022/09/08 02:16:39;;;;;;;;;;;21.90;66.60;;;;;;5058990;28;871;-67
2022/09/08 02:19:05;;;;;;;;;;;22.00;66.80;;;;;;5057375;28;1269;-67
2022/09/08 02:21:30;;;;;;;;;;;22.00;66.70;;;;;;5058530;28;949;-67
2022/09/08 02:23:56;;;;;;;;;;;21.90;66.70;;;;;;5058341;28;1154;-67
2022/09/08 02:26:25;;;;;;;;;;;22.00;66.80;;;;;;5055029;28;811;-67
2022/09/08 02:28:53;;;;;;;;;;;21.90;66.70;;;;;;5055448;28;1953;-67
2022/09/08 02:31:19;;;;;;;;;;;22.00;66.70;;;;;;5055280;28;1268;-67
2022/09/08 02:33:44;;;;;;;;;;;22.00;66.70;;;;;;5055647;28;1218;-67
2022/09/08 02:36:09;;;;;;;;;;;21.90;66.70;;;;;;5055873;28;817;-67
2022/09/08 02:38:35;;;;;;;;;;;22.00;66.80;;;;;;5055291;28;1167;-68
2022/09/08 02:41:00;;;;;;;;;;;22.00;66.80;;;;;;5055236;28;866;-67
2022/09/08 02:43:27;;;;;;;;;;;22.00;66.80;;;;;;5055499;28;819;-67
2022/09/08 02:45:52;;;;;;;;;;;22.00;66.80;;;;;;5055375;28;819;-67
2022/09/08 02:48:18;;;;;;;;;;;22.00;66.70;;;;;;5055140;28;1965;-67
2022/09/08 02:50:43;;;;;;;;;;;21.90;66.70;;;;;;5055117;28;800;-67
2022/09/08 02:53:09;;;;;;;;;;;22.00;66.70;;;;;;5053716;28;1462;-67
2022/09/08 02:55:38;;;;;;;;;;;22.00;66.80;;;;;;5055491;28;744;-67
2022/09/08 02:58:05;;;;;;;;;;;22.00;66.80;;;;;;5055022;28;1197;-67
2022/09/08 03:00:32;;;;;;;;;;;21.90;66.70;;;;;;5054069;28;871;-67
2022/09/08 03:02:57;;;;;;;;;;;21.90;66.80;;;;;;5054813;28;922;-67
2022/09/08 03:05:23;;;;;;;;;;;22.00;66.80;;;;;;5054826;28;807;-67
2022/09/08 03:07:48;;;;;;;;;;;22.00;66.80;;;;;;5054808;28;1205;-67
2022/09/08 03:10:14;;;;;;;;;;;22.00;66.90;;;;;;5054828;28;1894;-67
2022/09/08 03:12:40;;;;;;;;;;;21.90;66.80;;;;;;5054523;28;875;-67
2022/09/08 03:15:06;;;;;;;;;;;22.00;66.80;;;;;;5054813;28;850;-66
2022/09/08 03:17:31;;;;;;;;;;;22.00;66.80;;;;;;5054464;28;1204;-67
2022/09/08 03:19:57;;;;;;;;;;;21.90;66.70;;;;;;5054528;28;1009;-67
2022/09/08 03:22:22;;;;;;;;;;;22.00;66.90;;;;;;5048292;28;1201;-66
2022/09/08 03:24:48;;;;;;;;;;;21.90;66.80;;;;;;5034737;28;883;-67
2022/09/08 03:27:13;;;;;;;;;;;21.90;66.80;;;;;;5041217;28;1346;-67
2022/09/08 03:29:39;;;;;;;;;;;22.00;66.90;;;;;;5054607;28;1951;-68
2022/09/08 03:32:04;;;;;;;;;;;22.00;66.90;;;;;;5049591;28;1222;-67
2022/09/08 03:34:30;;;;;;;;;;;21.90;66.80;;;;;;5033194;28;902;-68
2022/09/08 03:36:55;;;;;;;;;;;21.90;66.80;;;;;;5034403;28;1202;-67
2022/09/08 03:39:21;;;;;;;;;;;21.90;66.80;;;;;;5033184;28;1021;-68
2022/09/08 03:41:46;;;;;;;;;;;22.00;66.90;;;;;;5016396;28;1166;-68
2022/09/08 03:44:11;;;;;;;;;;;22.00;66.90;;;;;;5033066;28;1282;-68
2022/09/08 03:46:37;;;;;;;;;;;21.90;66.80;;;;;;5034321;28;842;-68
2022/09/08 03:49:02;;;;;;;;;;;22.00;66.90;;;;;;5033741;28;1967;-68
2022/09/08 03:51:28;;;;;;;;;;;22.00;66.90;;;;;;5033943;28;823;-68
2022/09/08 03:54:46;;;;;;;;;;;22.00;66.90;;;;;;5032938;28;1399;-68
2022/09/08 03:56:40;;;;;;;;;;;21.90;67.20;;;;;;5034004;28;1046;-68
2022/09/08 03:59:05;;;;;;;;;;;22.00;66.90;;;;;;5033984;28;1217;-68
2022/09/08 04:01:31;;;;;;;;;;;21.90;66.80;;;;;;5033474;28;993;-68
2022/09/08 04:03:56;;;;;;;;;;;22.00;66.90;;;;;;5032708;28;899;-68
2022/09/08 04:06:21;;;;;;;;;;;22.00;67.00;;;;;;5033794;28;910;-68
2022/09/08 04:08:47;;;;;;;;;;;21.90;66.90;;;;;;5033598;28;1941;-68
2022/09/08 04:11:12;;;;;;;;;;;21.90;66.90;;;;;;5033449;28;927;-68
2022/09/08 04:13:38;;;;;;;;;;;21.90;66.90;;;;;;5032693;28;800;-68
2022/09/08 04:16:03;;;;;;;;;;;22.00;66.90;;;;;;5033750;28;850;-67
2022/09/08 04:18:29;;;;;;;;;;;21.90;66.80;;;;;;5032061;28;1295;-68
2022/09/08 04:20:56;;;;;;;;;;;22.00;67.00;;;;;;5033656;28;931;-67
2022/09/08 04:23:22;;;;;;;;;;;21.90;66.90;;;;;;5047918;28;1225;-67
2022/09/08 04:26:13;;;;;;;;;;;21.90;66.90;;;;;;5052148;28;891;-67
2022/09/08 04:28:42;;;;;;;;;;;22.00;67.00;;;;;;5050780;28;1961;-67
2022/09/08 04:31:08;;;;;;;;;;;21.90;66.90;;;;;;5050680;28;1182;-67
2022/09/08 04:33:33;;;;;;;;;;;21.90;66.90;;;;;;5032335;28;832;-67
2022/09/08 04:36:04;;;;;;;;;;;21.90;66.90;;;;;;5033307;28;855;-68
2022/09/08 04:38:29;;;;;;;;;;;21.90;66.90;;;;;;5033095;28;1290;-67
2022/09/08 04:40:54;;;;;;;;;;;21.90;66.90;;;;;;5036035;28;1883;-68
2022/09/08 04:43:20;;;;;;;;;;;21.90;67.00;;;;;;5047021;28;1036;-68
2022/09/08 04:45:45;;;;;;;;;;;21.90;66.90;;;;;;5043694;28;1198;-68
2022/09/08 04:48:11;;;;;;;;;;;22.00;67.00;;;;;;5051489;28;1298;-68
2022/09/08 04:50:36;;;;;;;;;;;21.90;67.00;;;;;;5052065;28;897;-68
2022/09/08 04:53:02;;;;;;;;;;;21.90;66.90;;;;;;5051727;28;863;-68
2022/09/08 04:55:27;;;;;;;;;;;21.90;66.90;;;;;;5052160;28;992;-68
2022/09/08 04:57:53;;;;;;;;;;;21.90;66.90;;;;;;5052311;28;1191;-68
2022/09/08 05:00:18;;;;;;;;;;;22.00;67.00;;;;;;5053051;28;1005;-68
2022/09/08 05:02:46;;;;;;;;;;;22.00;67.00;;;;;;5050719;28;1041;-68
2022/09/08 05:05:11;;;;;;;;;;;21.90;66.90;;;;;;5052807;28;842;-68
2022/09/08 05:07:36;;;;;;;;;;;22.00;66.90;;;;;;5052615;28;1288;-68
2022/09/08 05:10:02;;;;;;;;;;;21.90;66.90;;;;;;5045506;28;1949;-68
2022/09/08 05:12:27;;;;;;;;;;;22.00;66.90;;;;;;5044107;28;1326;-68
2022/09/08 05:14:53;;;;;;;;;;;21.90;66.80;;;;;;5050669;28;851;-66
2022/09/08 05:17:18;;;;;;;;;;;22.00;66.90;;;;;;5052184;28;1311;-67
2022/09/08 05:19:43;;;;;;;;;;;22.00;66.90;;;;;;5052343;28;803;-68
2022/09/08 05:22:09;;;;;;;;;;;22.00;66.90;;;;;;5046844;28;1197;-68
2022/09/08 05:24:34;;;;;;;;;;;21.90;67.00;;;;;;5032801;28;862;-68
2022/09/08 05:27:00;;;;;;;;;;;22.00;67.00;;;;;;5033377;28;1656;-68
2022/09/08 05:29:25;;;;;;;;;;;22.00;67.00;;;;;;5048755;28;1953;-68
2022/09/08 05:31:51;;;;;;;;;;;22.00;67.00;;;;;;5042949;28;1205;-67
2022/09/08 05:34:16;;;;;;;;;;;22.00;67.00;;;;;;5031479;28;1004;-67
2022/09/08 05:36:42;;;;;;;;;;;22.00;66.90;;;;;;5030601;28;719;-69
2022/09/08 05:39:07;;;;;;;;;;;21.90;66.90;;;;;;5031444;28;1288;-69
2022/09/08 05:41:33;;;;;;;;;;;22.00;66.90;;;;;;5030337;28;822;-69
2022/09/08 05:43:58;;;;;;;;;;;22.00;66.90;;;;;;5031701;28;849;-68
2022/09/08 05:46:25;;;;;;;;;;;22.00;66.90;;;;;;5030445;28;953;-68
2022/09/08 05:48:51;;;;;;;;;;;21.90;66.90;;;;;;5030195;28;1969;-66
2022/09/08 05:51:19;;;;;;;;;;;22.00;66.90;;;;;;5031164;28;1014;-66
2022/09/08 05:53:45;;;;;;;;;;;21.90;66.90;;;;;;5030516;28;874;-68
2022/09/08 05:56:10;;;;;;;;;;;21.90;66.80;;;;;;5031248;28;918;-69
2022/09/08 05:58:36;;;;;;;;;;;22.00;66.80;;;;;;5031431;28;1182;-68
2022/09/08 06:01:03;;;;;;;;;;;22.00;66.90;;;;;;5032695;28;811;-68
2022/09/08 06:03:28;;;;;;;;;;;22.00;66.90;;;;;;5033826;28;815;-69
2022/09/08 06:05:54;;;;;;;;;;;22.00;66.90;;;;;;5035332;28;725;-68
2022/09/08 06:08:21;;;;;;;;;;;21.90;66.80;;;;;;5034138;28;1883;-68
2022/09/08 06:10:50;;;;;;;;;;;21.90;66.90;;;;;;5034868;28;839;-67
2022/09/08 06:13:15;;;;;;;;;;;22.00;67.00;;;;;;5033579;28;862;-68
2022/09/08 06:15:40;;;;;;;;;;;22.00;67.00;;;;;;5033805;28;784;-67
2022/09/08 06:18:06;;;;;;;;;;;21.90;66.90;;;;;;5034856;28;1221;-67
2022/09/08 06:20:31;;;;;;;;;;;22.00;66.90;;;;;;5035601;28;934;-69
2022/09/08 06:22:57;;;;;;;;;;;22.00;66.90;;;;;;5044960;28;1151;-68
2022/09/08 06:25:22;;;;;;;;;;;22.00;66.90;;;;;;5055091;28;807;-67
2022/09/08 06:28:00;;;;;;;;;;;21.90;66.80;;;;;;5043530;28;1295;-68
2022/09/08 06:30:25;;;;;;;;;;;22.00;66.90;;;;;;5034455;28;1891;-68
2022/09/08 06:32:57;;;;;;;;;;;22.00;66.90;;;;;;5051731;28;1131;-68
2022/09/08 06:35:27;;;;;;;;;;;22.00;66.90;;;;;;5054338;28;946;-67
2022/09/08 06:37:53;;;;;;;;;;;22.00;66.90;;;;;;5053803;28;1307;-68
2022/09/08 06:40:23;;;;;;;;;;;21.90;66.80;;;;;;5054236;28;832;-68
2022/09/08 06:42:50;;;;;;;;;;;22.00;66.90;;;;;;5055313;28;879;-68
2022/09/08 06:45:23;;;;;;;;;;;22.00;66.90;;;;;;5054270;28;876;-68
2022/09/08 06:47:55;;;;;;;;;;;21.90;66.80;;;;;;5053804;28;1203;-68
2022/09/08 06:50:20;;;;;;;;;;;21.90;66.80;;;;;;5053790;28;1906;-68
2022/09/08 06:52:46;;;;;;;;;;;22.00;66.80;;;;;;5037163;28;1279;-67
2022/09/08 06:55:12;;;;;;;;;;;22.00;66.80;;;;;;5055034;28;823;-67
2022/09/08 06:57:43;;;;;;;;;;;22.00;66.80;;;;;;5054780;28;1282;-68
2022/09/08 07:00:28;;;;;;;;;;;22.00;66.90;;;;;;5053913;28;807;-67
2022/09/08 07:03:06;;;;;;;;;;;22.00;66.90;;;;;;5053441;28;844;-67
2022/09/08 07:05:41;;;;;;;;;;;22.00;66.80;;;;;;5055026;28;867;-68
2022/09/08 07:08:12;;;;;;;;;;;22.00;66.80;;;;;;5039959;28;1302;-68
2022/09/08 07:10:51;;;;;;;;;;;22.00;66.90;;;;;;5034337;28;1902;-67
2022/09/08 07:13:37;;;;;;;;;;;22.00;66.90;;;;;;5033504;28;812;-68
2022/09/08 07:16:12;;;;;;;;;;;22.00;66.90;;;;;;5033445;28;1032;-68
2022/09/08 07:18:39;;;;;;;;;;;21.90;66.80;;;;;;5033318;28;1291;-68
2022/09/08 07:21:34;;;;;;;;;;;22.00;66.90;;;;;;5033195;28;969;-67
2022/09/08 07:24:00;;;;;;;;;;;22.00;66.90;;;;;;5025457;28;1329;-67
2022/09/08 07:26:32;;;;;;;;;;;22.00;66.90;;;;;;5033717;28;1103;-68
2022/09/08 07:29:01;;;;;;;;;;;21.90;66.80;;;;;;5054289;28;1946;-68
2022/09/08 07:31:27;;;;;;;;;;;21.90;66.80;;;;;;5048037;28;1190;-68
2022/09/08 07:33:54;;;;;;;;;;;22.00;66.90;;;;;;5034608;28;792;-69
2022/09/08 07:36:22;;;;;;;;;;;22.00;66.90;;;;;;5033131;28;652;-69
2022/09/08 07:38:51;;;;;;;;;;;22.00;66.90;;;;;;5033420;28;1187;-69
2022/09/08 07:41:19;;;;;;;;;;;22.00;66.90;;;;;;5032900;28;827;-69
2022/09/08 07:43:44;;;;;;;;;;;22.00;66.90;;;;;;5033140;28;831;-69
2022/09/08 07:46:19;;;;;;;;;;;22.00;66.90;;;;;;5034276;28;1064;-68
2022/09/08 07:49:03;;;;;;;;;;;22.00;66.80;;;;;;5034366;28;1973;-68
2022/09/08 07:51:32;;;;;;;;;;;22.00;66.90;;;;;;5033920;28;1045;-69
2022/09/08 07:54:06;;;;;;;;;;;22.00;66.90;;;;;;5032884;28;1006;-69
2022/09/08 07:56:38;;;;;;;;;;;22.00;66.80;;;;;;5046660;28;2277;-69
2022/09/08 07:59:03;;;;;;;;;;;22.00;66.90;;;;;;5041085;28;1220;-68
2022/09/08 08:01:45;;;;;;;;;;;21.90;66.80;;;;;;5033812;28;958;-69
2022/09/08 08:04:17;;;;;;;;;;;21.90;66.80;;;;;;5049118;28;1186;-70
2022/09/08 08:06:48;;;;;;;;;;;22.00;66.80;;;;;;5050121;28;1268;-69
2022/09/08 08:09:17;;;;;;;;;;;22.00;66.90;;;;;;5053676;28;1902;-69
2022/09/08 08:12:02;;;;;;;;;;;22.00;66.90;;;;;;5053386;28;798;-68
2022/09/08 08:14:28;;;;;;;;;;;22.00;66.90;;;;;;5052526;28;964;-69
2022/09/08 08:16:59;;;;;;;;;;;22.00;66.90;;;;;;5053401;28;1204;-68
2022/09/08 08:19:47;;;;;;;;;;;22.00;66.90;;;;;;5053523;28;795;-69
2022/09/08 08:22:12;;;;;;;;;;;22.00;66.90;;;;;;5047749;28;1108;-68
2022/09/08 08:24:43;;;;;;;;;;;22.00;66.90;;;;;;5033304;28;1026;-69
2022/09/08 08:27:21;;;;;;;;;;;22.00;66.90;;;;;;5039255;28;1268;-69
2022/09/08 08:29:46;;;;;;;;;;;22.00;66.90;;;;;;5048336;28;2136;-69
2022/09/08 08:32:12;;;;;;;;;;;22.00;66.90;;;;;;5043922;28;1096;-69
2022/09/08 08:34:40;;;;;;;;;;;22.00;66.90;;;;;;5043425;28;1142;-68
2022/09/08 08:37:06;;;;;;;;;;;22.00;66.90;;;;;;5031967;28;1208;-68
2022/09/08 08:39:32;;;;;;;;;;;22.00;66.90;;;;;;5032286;28;949;-68
2022/09/08 08:42:10;;;;;;;;;;;22.00;66.90;;;;;;5015575;28;1390;-68
2022/09/08 08:44:51;;;;;;;;;;;22.00;67.10;;;;;;5034225;28;786;-68
2022/09/08 08:47:34;;;;;;;;;;;22.00;66.90;;;;;;5035604;28;1374;-68
2022/09/08 08:50:19;;;;;;;;;;;22.00;67.00;;;;;;5033396;28;1969;-68
2022/09/08 08:52:48;;;;;;;;;;;22.00;66.90;;;;;;5035136;28;1285;-69
2022/09/08 08:55:13;;;;;;;;;;;22.00;67.00;;;;;;5041684;28;1133;-70
2022/09/08 08:57:44;;;;;;;;;;;22.00;67.00;;;;;;5042515;28;1297;-70
2022/09/08 09:00:34;;;;;;;;;;;22.00;66.90;;;;;;5040841;28;1863;-69
2022/09/08 09:03:15;;;;;;;;;;;21.90;66.90;;;;;;5014864;28;1420;-68
2022/09/08 09:05:40;;;;;;;;;;;22.00;66.90;;;;;;5034672;28;1079;-66
2022/09/08 09:08:15;;;;;;;;;;;21.90;66.90;;;;;;5031031;28;1205;-67
2022/09/08 09:11:01;;;;;;;;;;;21.90;66.90;;;;;;5038828;28;1894;-67
2022/09/08 09:13:34;;;;;;;;;;;22.00;66.90;;;;;;5030697;28;850;-68
2022/09/08 09:16:03;;;;;;;;;;;22.00;66.90;;;;;;5030697;28;929;-68
2022/09/08 09:18:34;;;;;;;;;;;22.00;66.90;;;;;;5013829;28;1632;-69
2022/09/08 09:21:20;;;;;;;;;;;21.90;66.90;;;;;;5033559;28;855;-68
2022/09/08 09:23:48;;;;;;;;;;;22.00;66.90;;;;;;5011777;28;1361;-67
2022/09/08 09:26:13;;;;;;;;;;;22.00;66.90;;;;;;5032303;28;891;-68
2022/09/08 09:28:42;;;;;;;;;;;21.90;66.80;;;;;;5031227;28;1891;-68
2022/09/08 09:31:31;;;;;;;;;;;21.90;66.80;;;;;;5032149;28;1218;-69
2022/09/08 09:33:56;;;;;;;;;;;22.00;66.90;;;;;;5005872;28;1482;-70
2022/09/08 09:36:51;;;;;;;;;;;22.00;66.90;;;;;;5046391;28;1427;-70
2022/09/08 09:39:28;;;;;;;;;;;22.00;66.90;;;;;;5027567;28;1184;-69
2022/09/08 09:42:12;;;;;;;;;;;22.00;66.90;;;;;;5051058;28;1327;-69
2022/09/08 09:45:01;;;;;;;;;;;22.00;66.90;;;;;;5035313;28;840;-69
2022/09/08 09:47:40;;;;;;;;;;;21.90;66.80;;;;;;5026646;28;1193;-70
2022/09/08 09:50:29;;;;;;;;;;;21.90;66.80;;;;;;5035289;28;1902;-69
2022/09/08 09:53:02;;;;;;;;;;;22.00;66.80;;;;;;5034132;28;1047;-69
2022/09/08 09:55:47;;;;;;;;;;;22.00;66.90;;;;;;5034173;28;812;-69
2022/09/08 09:58:19;;;;;;;;;;;22.00;66.90;;;;;;5034854;28;1259;-69
2022/09/08 10:00:44;;;;;;;;;;;22.00;66.90;;;;;;5033925;28;890;-69
2022/09/08 10:03:12;;;;;;;;;;;22.00;66.90;;;;;;5034934;28;823;-68
2022/09/08 10:05:47;;;;;;;;;;;22.00;66.90;;;;;;5035174;28;883;-69
2022/09/08 10:08:24;;;;;;;;;;;22.00;66.90;;;;;;5034591;28;1298;-69
2022/09/08 10:11:08;;;;;;;;;;;22.00;66.90;;;;;;5035330;28;807;-68
2022/09/08 10:13:42;;;;;;;;;;;22.00;66.90;;;;;;5033522;28;902;-68
2022/09/08 10:16:26;;;;;;;;;;;21.90;66.90;;;;;;5035108;28;882;-68
2022/09/08 10:19:08;;;;;;;;;;;22.00;66.90;;;;;;5035893;28;1201;-69
2022/09/08 10:21:37;;;;;;;;;;;22.00;67.00;;;;;;5034440;28;1017;-68
2022/09/08 10:24:08;;;;;;;;;;;22.00;67.00;;;;;;5035623;28;1167;-67
2022/09/08 10:26:34;;;;;;;;;;;22.00;67.00;;;;;;5036941;28;1095;-68
2022/09/08 10:29:08;;;;;;;;;;;21.90;67.30;;;;;;5055203;28;1932;-68
2022/09/08 10:31:34;;;;;;;;;;;22.00;67.00;;;;;;5050807;28;1198;-68
2022/09/08 10:34:18;;;;;;;;;;;22.00;67.00;;;;;;5031445;28;1491;-68
2022/09/08 10:36:46;;;;;;;;;;;22.00;67.00;;;;;;5033065;28;1319;-68
2022/09/08 10:39:18;;;;;;;;;;;22.00;67.00;;;;;;5035173;28;829;-68
2022/09/08 10:41:52;;;;;;;;;;;22.00;67.00;;;;;;5034869;28;825;-68
2022/09/08 10:44:36;;;;;;;;;;;22.00;67.00;;;;;;5034380;28;803;-68
2022/09/08 10:47:08;;;;;;;;;;;22.00;67.00;;;;;;5036931;28;1318;-68
2022/09/08 10:49:44;;;;;;;;;;;22.00;67.00;;;;;;5052036;28;2459;-68
2022/09/08 10:52:10;;;;;;;;;;;22.00;67.00;;;;;;5071842;28;2016;-68
2022/09/08 10:54:35;;;;;;;;;;;22.00;67.00;;;;;;5042975;28;1229;-68
2022/09/08 10:57:21;;;;;;;;;;;22.00;67.00;;;;;;5034878;28;1302;-68
2022/09/08 10:59:59;;;;;;;;;;;21.90;66.90;;;;;;5034889;28;1149;-68
2022/09/08 11:02:29;;;;;;;;;;;22.00;67.00;;;;;;5033773;28;831;-68
2022/09/08 11:05:07;;;;;;;;;;;22.00;67.00;;;;;;5035450;28;787;-67
2022/09/08 11:07:47;;;;;;;;;;;22.00;67.00;;;;;;5033922;28;1216;-68
2022/09/08 11:10:21;;;;;;;;;;;22.00;67.00;;;;;;5033897;28;1902;-67
2022/09/08 11:12:53;;;;;;;;;;;21.90;66.90;;;;;;5033613;28;1020;-67
2022/09/08 11:15:33;;;;;;;;;;;22.00;67.00;;;;;;5035165;28;784;-67
2022/09/08 11:18:19;;;;;;;;;;;22.00;67.00;;;;;;5034754;28;1269;-68
2022/09/08 11:20:51;;;;;;;;;;;22.00;67.10;;;;;;5034537;28;1203;-68
2022/09/08 11:23:26;;;;;;;;;;;22.00;67.00;;;;;;5034493;28;1111;-68
2022/09/08 11:25:57;;;;;;;;;;;21.90;67.00;;;;;;5034826;28;879;-68
2022/09/08 11:28:41;;;;;;;;;;;22.00;67.10;;;;;;5046403;28;1272;-68
2022/09/08 11:31:12;;;;;;;;;;;22.00;67.10;;;;;;5036729;28;1203;-67
2022/09/08 11:33:54;;;;;;;;;;;22.00;67.10;;;;;;5053198;28;1069;-68
2022/09/08 11:36:38;;;;;;;;;;;22.00;67.10;;;;;;5053291;28;862;-68
2022/09/08 11:39:05;;;;;;;;;;;22.00;67.10;;;;;;5052840;28;1318;-68
2022/09/08 11:41:33;;;;;;;;;;;22.00;67.10;;;;;;5053073;28;889;-68
2022/09/08 11:44:17;;;;;;;;;;;21.90;67.00;;;;;;5054513;28;815;-68
2022/09/08 11:46:45;;;;;;;;;;;22.00;67.10;;;;;;5054343;28;994;-68
2022/09/08 11:49:30;;;;;;;;;;;21.90;67.00;;;;;;5053950;28;1911;-68
2022/09/08 11:52:03;;;;;;;;;;;21.90;67.10;;;;;;5036097;28;1358;-67
2022/09/08 11:54:28;;;;;;;;;;;22.00;67.10;;;;;;5052867;28;1029;-68
2022/09/08 11:57:01;;;;;;;;;;;22.00;67.10;;;;;;5054337;28;1184;-68
2022/09/08 11:59:44;;;;;;;;;;;21.90;67.00;;;;;;5052895;28;1341;-68
2022/09/08 12:02:27;;;;;;;;;;;21.90;67.00;;;;;;5054136;28;934;-68
2022/09/08 12:04:59;;;;;;;;;;;21.90;67.00;;;;;;5053815;28;1171;-68
2022/09/08 12:07:37;;;;;;;;;;;22.00;67.10;;;;;;5052551;28;1224;-67
2022/09/08 12:10:21;;;;;;;;;;;21.90;67.00;;;;;;5053751;28;1949;-68
2022/09/08 12:12:53;;;;;;;;;;;21.90;67.00;;;;;;5053758;28;792;-67
2022/09/08 12:15:31;;;;;;;;;;;22.00;67.10;;;;;;5052538;28;819;-67
2022/09/08 12:18:02;;;;;;;;;;;22.00;67.10;;;;;;5052367;28;1617;-68
2022/09/08 12:20:38;;;;;;;;;;;21.90;67.00;;;;;;5052775;28;966;-68
2022/09/08 12:23:15;;;;;;;;;;;21.90;67.00;;;;;;5041976;28;1189;-68
2022/09/08 12:25:50;;;;;;;;;;;22.00;67.10;;;;;;5033721;28;808;-68
2022/09/08 12:28:34;;;;;;;;;;;22.00;67.10;;;;;;5047513;28;1299;-68
2022/09/08 12:31:00;;;;;;;;;;;22.00;67.10;;;;;;5053232;28;1222;-68
2022/09/08 12:33:31;;;;;;;;;;;21.90;67.10;;;;;;5052245;28;1357;-68
2022/09/08 12:36:00;;;;;;;;;;;21.90;67.10;;;;;;5053583;28;1090;-68
2022/09/08 12:38:25;;;;;;;;;;;21.90;67.00;;;;;;5051555;28;1227;-68
2022/09/08 12:40:56;;;;;;;;;;;21.90;67.10;;;;;;5053315;28;1051;-68
2022/09/08 12:43:25;;;;;;;;;;;21.90;67.10;;;;;;5053164;28;815;-69
2022/09/08 12:46:09;;;;;;;;;;;22.00;67.20;;;;;;5053217;28;776;-68
2022/09/08 12:48:59;;;;;;;;;;;21.90;67.10;;;;;;5052734;28;1965;-68
2022/09/08 12:51:25;;;;;;;;;;;21.90;67.10;;;;;;5051905;28;822;-68
2022/09/08 12:53:59;;;;;;;;;;;21.90;67.10;;;;;;5053220;28;823;-68
2022/09/08 12:56:43;;;;;;;;;;;21.90;67.10;;;;;;5053376;28;783;-68
2022/09/08 12:59:21;;;;;;;;;;;21.90;67.10;;;;;;5052831;28;1286;-68
2022/09/08 13:01:56;;;;;;;;;;;21.90;67.10;;;;;;5053068;28;976;-68
2022/09/08 13:04:28;;;;;;;;;;;21.90;67.10;;;;;;5052128;28;962;-68
2022/09/08 13:06:59;;;;;;;;;;;21.90;67.10;;;;;;5051730;28;1303;-68
2022/09/08 13:09:26;;;;;;;;;;;21.90;67.20;;;;;;5051145;28;1894;-68
2022/09/08 13:12:00;;;;;;;;;;;21.90;67.20;;;;;;5052669;28;883;-68
2022/09/08 13:14:33;;;;;;;;;;;21.90;67.20;;;;;;5052847;28;899;-68
2022/09/08 13:17:02;;;;;;;;;;;21.90;67.20;;;;;;5051690;28;1282;-68
2022/09/08 13:19:29;;;;;;;;;;;21.90;67.20;;;;;;5051716;28;883;-68
2022/09/08 13:22:14;;;;;;;;;;;21.90;67.10;;;;;;5049326;28;1232;-67
2022/09/08 13:24:47;;;;;;;;;;;21.90;67.20;;;;;;5033044;28;875;-68
2022/09/08 13:27:32;;;;;;;;;;;21.90;67.10;;;;;;5038129;28;1331;-68
2022/09/08 13:30:04;;;;;;;;;;;21.90;67.10;;;;;;5051458;28;1898;-67
2022/09/08 13:32:46;;;;;;;;;;;21.90;67.10;;;;;;5052920;28;1122;-68
2022/09/08 13:35:14;;;;;;;;;;;21.90;67.10;;;;;;5051779;28;879;-68
2022/09/08 13:37:52;;;;;;;;;;;21.90;67.10;;;;;;5060940;22;3963;-68
2022/09/08 13:40:18;;;;;;;;;;;21.90;67.10;;;;;;5013752;28;834;-68
2022/09/08 13:42:50;;;;;;;;;;;21.90;67.10;;;;;;5012684;28;875;-68
2022/09/08 13:45:35;;;;;;;;;;;21.90;67.10;;;;;;5013041;28;1023;-67
2022/09/08 13:48:13;;;;;;;;;;;21.90;67.10;;;;;;5012994;28;1243;-68
2022/09/08 13:50:46;;;;;;;;;;;21.90;67.20;;;;;;5012792;28;1902;-68
2022/09/08 13:55:46;;;;;;;;;;;21.90;67.20;;;;;;5493348;22;1723;-67
2022/09/08 13:58:30;;;;;;;;;;;21.90;67.20;;;;;;5024111;28;1269;-67
2022/09/08 14:01:15;;;;;;;;;;;21.90;67.20;;;;;;5029130;28;1317;-67
2022/09/08 14:03:44;;;;;;;;;;;21.90;67.20;;;;;;5032316;28;926;-68
2022/09/08 14:06:09;;;;;;;;;;;21.90;67.20;;;;;;4996681;28;1398;-67
2022/09/08 14:08:38;;;;;;;;;;;21.90;67.20;;;;;;5027788;22;3700;-64
2022/09/08 14:11:08;;;;;;;;;;;22.00;67.30;;;;;;4993008;28;1189;-65
2022/09/08 14:13:34;;;;;;;;;;;22.00;67.30;;;;;;4984389;28;1171;-65
2022/09/08 14:16:09;;;;;;;;;;;21.90;67.20;;;;;;4992508;28;800;-65
2022/09/08 14:18:38;;;;;;;;;;;21.90;67.20;;;;;;5008010;28;1146;-65
2022/09/08 14:21:14;;;;;;;;;;;21.90;67.30;;;;;;4994050;28;1040;-64
2022/09/08 14:23:40;;;;;;;;;;;21.90;67.20;;;;;;5027754;28;1116;-64
2022/09/08 14:26:24;;;;;;;;;;;21.90;67.20;;;;;;5015818;28;886;-64
2022/09/08 14:29:05;;;;;;;;;;;21.90;67.20;;;;;;4977387;28;1914;-64
2022/09/08 14:31:30;;;;;;;;;;;21.90;67.20;;;;;;4997078;28;1216;-64
2022/09/08 14:33:58;;;;;;;;;;;21.90;67.20;;;;;;4996416;28;882;-64
2022/09/08 14:36:38;;;;;;;;;;;21.90;67.20;;;;;;4994806;28;844;-64
2022/09/08 14:39:07;;;;;;;;;;;21.90;67.20;;;;;;4978613;28;1337;-64
2022/09/08 14:41:33;;;;;;;;;;;21.90;67.20;;;;;;4994881;28;811;-64
2022/09/08 14:44:00;;;;;;;;;;;21.90;67.30;;;;;;4994925;28;898;-64
2022/09/08 14:46:26;;;;;;;;;;;21.90;67.20;;;;;;4995678;28;1091;-64
2022/09/08 14:49:00;;;;;;;;;;;21.90;67.30;;;;;;5834443;22;2111;-64
2022/09/08 14:51:38;;;;;;;;;;;21.90;67.30;;;;;;5028737;28;1225;-64
2022/09/08 14:54:04;;;;;;;;;;;21.90;67.20;;;;;;5006391;28;1305;-65
2022/09/08 14:56:30;;;;;;;;;;;21.90;67.20;;;;;;5013794;28;920;-65
2022/09/08 14:59:04;;;;;;;;;;;21.90;67.20;;;;;;4996695;28;1934;-65
2022/09/08 15:01:30;;;;;;;;;;;21.90;67.20;;;;;;5014737;28;899;-65
2022/09/08 15:03:57;;;;;;;;;;;21.90;67.20;;;;;;5038810;22;1916;-67
2022/09/08 15:06:34;;;;;;;;;;;21.90;67.20;;;;;;5002475;28;864;-67